Photo de Laille
Rennes
Orageux
Metar : 2017/11/22 22:00 LFRN 222200Z AUTO 18015KT 9999 ///TCU 15/10 Q0997 TEMPO RA BECMG 18025G40KT BKN030
Couverture nuageuse :
Pression de 29.44 inHg (997 hPa)
Humidité : 72%
Température : 59°F (15°C)
Vent de S at 17 mph (28 km/h)
Visibilité : 6 miles (10 km)
Nantes
Ciel dégagé
Metar : 2017/11/22 22:00 LFRS 222200Z AUTO 18013KT CAVOK 15/09 Q1000 BECMG 18020G30KT
Couverture nuageuse :
Traduc : Partly cloudy 700 ft
Pression de 29.53 inHg (1000 hPa)
Humidité : 68%
Température : 59°F (15°C)
Point de rosée : 48°F (9°C)
Vent de S at 15 mph (24 km/h)
Visibilité : greater than 7 miles (10 km)
Lannion
Orageux
Metar : 2017/11/22 22:00 LFRO 222200Z AUTO 18019G32KT 9999 FEW033/// BKN068/// BKN084/// ///TCU 14/11 Q0992
Couverture nuageuse : Few Clouds 3300 ft Mostly Cloudy 6800 ft Mostly Cloudy 8400 ft
Traduc : Partly cloudy 700 ft
Pression de 29.29 inHg (992 hPa)
Humidité : 82%
Température : 57°F (14°C)
Point de rosée : 52°F (11°C)
Vent de S at 22 mph (35 km/h), gusting to 37 mph (59 km/h)
Visibilité : 6 miles (10 km)
Dinard
pluie légère, Orageux
Metar : 2017/11/22 22:00 LFRD 222200Z AUTO 19017KT 9999 -RA ///TCU 14/10 Q0995 TEMPO 3000 TSRA BKN015CB BECMG 20030G45KT
Couverture nuageuse :
Traduc : Partly cloudy 700 ft
Pression de 29.38 inHg (995 hPa)
Humidité : 77%
Température : 57°F (14°C)
Point de rosée : 50°F (10°C)
Vent de S at 20 mph (31 km/h)
Visibilité : 6 miles (10 km)
Brest
Pluie, Orageux
Metar : 2017/11/22 22:00 LFRB 222200Z AUTO 20026KT 6000 RA BKN017/// BKN022/// OVC027/// ///CB 14/11 Q0990 TEMPO 3000 RA BKN012CB BECMG 20025G39KT
Couverture nuageuse : Mostly Cloudy 1700 ft Mostly Cloudy 2200 ft Overcast 2700 ft
Traduc : Partly cloudy 700 ft
Pression de 29.23 inHg (990 hPa)
Humidité : 82%
Température : 57°F (14°C)
Point de rosée : 52°F (11°C)
Vent de SSW at 30 mph (48 km/h)
Visibilité : 4 miles (6 km)
Quimper
pluie légère, Orageux
Metar : 2017/11/22 22:00 LFRQ 222200Z AUTO 21027G42KT 9000 -RA BKN016/// OVC024/// ///CB 14/12 Q0992 TEMPO 2000 TSRA BKN012CB
Couverture nuageuse : Mostly Cloudy 1600 ft Overcast 2400 ft
Traduc : Partly cloudy 700 ft
Pression de 29.29 inHg (992 hPa)
Humidité : 88%
Température : 57°F (14°C)
Point de rosée : 54°F (12°C)
Vent de SSW at 31 mph (50 km/h), gusting to 48 mph (78 km/h)
Visibilité : 6 miles (9 km)
St Nazaire
Ciel dégagé
Metar : 2017/11/22 22:00 LFRZ 222200Z AUTO 19020KT CAVOK 17/10 Q0998 BECMG 19020G30KT
Couverture nuageuse :
Traduc : Partly cloudy 700 ft
Pression de 29.47 inHg (998 hPa)
Humidité : 64%
Température : 63°F (17°C)
Point de rosée : 50°F (10°C)
Vent de S at 23 mph (37 km/h)
Visibilité : greater than 7 miles (10 km)
St Brieuc
Orageux
Metar : 2017/11/22 22:00 LFRT 222200Z AUTO 22016G32KT 180V280 9999 BKN039/// BKN050/// BKN070/// ///TCU 15/09 Q0993
Couverture nuageuse : Mostly Cloudy 3900 ft Mostly Cloudy 5000 ft Mostly Cloudy 7000 ft
Traduc : Partly cloudy 700 ft
Pression de 29.32 inHg (993 hPa)
Humidité : 68%
Température : 59°F (15°C)
Point de rosée : 48°F (9°C)
Vent de SW at 18 mph (30 km/h), gusting to 37 mph (59 km/h)
Visibilité : 6 miles (10 km)
Lorient
Ciel dégagé
Metar : 2017/11/22 22:00 LFRH 222200Z AUTO 20023KT CAVOK 16/11 Q0995 TEMPO 20030G50KT 2000 TSRA BECMG BKN010CB OVC020
Couverture nuageuse :
Traduc : Partly cloudy 700 ft
Pression de 29.38 inHg (995 hPa)
Humidité : 72%
Température : 61°F (16°C)
Point de rosée : 52°F (11°C)
Vent de SSW at 26 mph (43 km/h)
Visibilité : greater than 7 miles (10 km)
Vannes-Meucon
Ciel dégagé
Metar : 2017/11/22 22:00 LFRV 222200Z AUTO 20014G26KT 150V240 CAVOK 15/10 Q0997
Couverture nuageuse :
Traduc : Partly cloudy 700 ft
Pression de 29.44 inHg (997 hPa)
Humidité : 72%
Température : 59°F (15°C)
Point de rosée : 50°F (10°C)
Vent de SSW at 16 mph (26 km/h), gusting to 30 mph (48 km/h)
Visibilité : greater than 7 miles (10 km)

 


   Weather Underground PWS IBRETAGN39      Weather Underground PWS IBRETAGN39Retour Météo-Laillé adhérent de Météo-Bretagne et d'Infoclimat. Données mises à jour en temps réel via Météolink Climatologie réalisée sous Wswin et GraphWeather.

Affichage prévisions météo de WeatherUnderground via script PHP de Saratoga.

Copyright 2012-2017